sensor_id;sensor_type;location;lat;lon;timestamp;pressure;altitude;pressure_sealevel;temperature;humidity
20710;BME280;10516;51.518;9.864;2022-11-14T00:00:32;99110.34;;;5.36;82.70
20710;BME280;10516;51.518;9.864;2022-11-14T00:03:02;99099.53;;;5.44;82.36
20710;BME280;10516;51.518;9.864;2022-11-14T00:05:28;99112.91;;;5.62;82.22
20710;BME280;10516;51.518;9.864;2022-11-14T00:07:54;99124.41;;;5.37;83.03
20710;BME280;10516;51.518;9.864;2022-11-14T00:10:19;99116.63;;;5.55;81.01
20710;BME280;10516;51.518;9.864;2022-11-14T00:12:45;99103.06;;;5.25;82.75
20710;BME280;10516;51.518;9.864;2022-11-14T00:15:11;99112.00;;;5.37;82.16
20710;BME280;10516;51.518;9.864;2022-11-14T00:17:37;99090.06;;;5.17;83.08
20710;BME280;10516;51.518;9.864;2022-11-14T00:20:03;99109.69;;;5.54;82.11
20710;BME280;10516;51.518;9.864;2022-11-14T00:22:29;99103.72;;;5.01;83.99
20710;BME280;10516;51.518;9.864;2022-11-14T00:24:55;99114.75;;;4.72;86.03
20710;BME280;10516;51.518;9.864;2022-11-14T00:27:20;99099.28;;;4.69;84.97
20710;BME280;10516;51.518;9.864;2022-11-14T00:29:45;99096.84;;;4.80;85.41
20710;BME280;10516;51.518;9.864;2022-11-14T00:32:11;99100.88;;;4.96;84.41
20710;BME280;10516;51.518;9.864;2022-11-14T00:34:36;99079.16;;;4.61;85.97
20710;BME280;10516;51.518;9.864;2022-11-14T00:37:01;99099.25;;;5.01;83.76
20710;BME280;10516;51.518;9.864;2022-11-14T00:39:27;99103.53;;;4.83;84.01
20710;BME280;10516;51.518;9.864;2022-11-14T00:41:52;99090.44;;;5.20;83.78
20710;BME280;10516;51.518;9.864;2022-11-14T00:44:18;99096.97;;;5.11;83.76
20710;BME280;10516;51.518;9.864;2022-11-14T00:46:43;99096.66;;;4.55;86.94
20710;BME280;10516;51.518;9.864;2022-11-14T00:49:09;99075.09;;;4.78;84.68
20710;BME280;10516;51.518;9.864;2022-11-14T00:51:34;99094.34;;;5.05;85.14
20710;BME280;10516;51.518;9.864;2022-11-14T00:54:00;99063.25;;;4.87;83.38
20710;BME280;10516;51.518;9.864;2022-11-14T00:56:25;99071.81;;;5.47;82.67
20710;BME280;10516;51.518;9.864;2022-11-14T00:58:51;99074.09;;;4.53;84.63
20710;BME280;10516;51.518;9.864;2022-11-14T01:01:16;99063.47;;;4.79;85.21
20710;BME280;10516;51.518;9.864;2022-11-14T01:03:41;99067.19;;;4.65;84.90
20710;BME280;10516;51.518;9.864;2022-11-14T01:06:08;99070.78;;;4.97;85.46
20710;BME280;10516;51.518;9.864;2022-11-14T01:08:35;99058.47;;;5.35;82.81
20710;BME280;10516;51.518;9.864;2022-11-14T01:11:00;99064.31;;;4.67;84.65
20710;BME280;10516;51.518;9.864;2022-11-14T01:13:30;99061.16;;;5.15;83.67
20710;BME280;10516;51.518;9.864;2022-11-14T01:15:59;99049.56;;;5.16;82.08
20710;BME280;10516;51.518;9.864;2022-11-14T01:18:25;99054.88;;;5.61;81.53
20710;BME280;10516;51.518;9.864;2022-11-14T01:20:50;99053.81;;;5.24;82.50
20710;BME280;10516;51.518;9.864;2022-11-14T01:23:16;99052.66;;;4.94;83.94
20710;BME280;10516;51.518;9.864;2022-11-14T01:25:42;99053.31;;;4.76;84.24
20710;BME280;10516;51.518;9.864;2022-11-14T01:28:12;99040.81;;;5.60;81.76
20710;BME280;10516;51.518;9.864;2022-11-14T01:30:38;99046.78;;;5.93;80.19
20710;BME280;10516;51.518;9.864;2022-11-14T01:33:04;99032.28;;;5.58;81.27
20710;BME280;10516;51.518;9.864;2022-11-14T01:35:34;99048.31;;;5.19;82.90
20710;BME280;10516;51.518;9.864;2022-11-14T01:38:00;99026.81;;;4.96;82.20
20710;BME280;10516;51.518;9.864;2022-11-14T01:40:26;99050.31;;;5.30;83.35
20710;BME280;10516;51.518;9.864;2022-11-14T01:51:01;99040.22;;;5.01;83.07
20710;BME280;10516;51.518;9.864;2022-11-14T01:53:28;99013.09;;;4.41;86.41
20710;BME280;10516;51.518;9.864;2022-11-14T01:55:56;99031.16;;;4.64;85.82
20710;BME280;10516;51.518;9.864;2022-11-14T01:58:22;99024.69;;;4.53;85.24
20710;BME280;10516;51.518;9.864;2022-11-14T02:00:48;99021.19;;;4.73;84.56
20710;BME280;10516;51.518;9.864;2022-11-14T02:03:15;99022.06;;;4.40;85.54
20710;BME280;10516;51.518;9.864;2022-11-14T02:05:41;99021.59;;;4.63;84.77
20710;BME280;10516;51.518;9.864;2022-11-14T02:08:09;99021.19;;;5.37;83.10
20710;BME280;10516;51.518;9.864;2022-11-14T02:10:37;99008.78;;;4.80;83.04
20710;BME280;10516;51.518;9.864;2022-11-14T02:13:02;99008.53;;;4.88;84.02
20710;BME280;10516;51.518;9.864;2022-11-14T02:15:27;99002.34;;;5.13;83.82
20710;BME280;10516;51.518;9.864;2022-11-14T02:17:53;98990.63;;;4.90;82.64
20710;BME280;10516;51.518;9.864;2022-11-14T02:20:25;99002.66;;;4.86;83.53
20710;BME280;10516;51.518;9.864;2022-11-14T02:22:54;98995.84;;;5.09;82.88
20710;BME280;10516;51.518;9.864;2022-11-14T02:25:19;98993.31;;;4.70;85.56
20710;BME280;10516;51.518;9.864;2022-11-14T02:27:45;98989.75;;;5.02;83.73
20710;BME280;10516;51.518;9.864;2022-11-14T02:30:14;98986.19;;;4.77;85.34
20710;BME280;10516;51.518;9.864;2022-11-14T02:32:39;98986.81;;;5.30;83.37
20710;BME280;10516;51.518;9.864;2022-11-14T02:35:05;98973.03;;;4.57;84.24
20710;BME280;10516;51.518;9.864;2022-11-14T02:37:30;98980.72;;;4.72;84.61
20710;BME280;10516;51.518;9.864;2022-11-14T02:39:56;98963.69;;;4.48;84.88
20710;BME280;10516;51.518;9.864;2022-11-14T02:42:21;98957.78;;;4.60;85.76
20710;BME280;10516;51.518;9.864;2022-11-14T02:44:47;98959.88;;;5.02;83.64
20710;BME280;10516;51.518;9.864;2022-11-14T02:47:12;98964.00;;;5.67;82.12
20710;BME280;10516;51.518;9.864;2022-11-14T02:49:37;98962.56;;;5.33;82.34
20710;BME280;10516;51.518;9.864;2022-11-14T02:52:03;98966.59;;;5.04;82.62
20710;BME280;10516;51.518;9.864;2022-11-14T02:54:28;98947.41;;;5.09;83.11
20710;BME280;10516;51.518;9.864;2022-11-14T02:56:54;98963.41;;;5.27;82.36
20710;BME280;10516;51.518;9.864;2022-11-14T02:59:19;98941.38;;;5.33;82.60
20710;BME280;10516;51.518;9.864;2022-11-14T03:01:45;98962.03;;;5.18;82.21
20710;BME280;10516;51.518;9.864;2022-11-14T03:04:11;98931.78;;;4.43;83.67
20710;BME280;10516;51.518;9.864;2022-11-14T03:06:36;98938.81;;;5.20;83.97
20710;BME280;10516;51.518;9.864;2022-11-14T03:09:02;98947.97;;;5.24;81.94
20710;BME280;10516;51.518;9.864;2022-11-14T03:11:27;98916.09;;;4.62;82.03
20710;BME280;10516;51.518;9.864;2022-11-14T03:13:52;98949.97;;;4.84;83.01
20710;BME280;10516;51.518;9.864;2022-11-14T03:16:18;98928.00;;;4.84;83.94
20710;BME280;10516;51.518;9.864;2022-11-14T03:18:44;98934.91;;;5.29;82.03
20710;BME280;10516;51.518;9.864;2022-11-14T03:21:12;98918.56;;;4.43;83.47
20710;BME280;10516;51.518;9.864;2022-11-14T03:23:38;98937.22;;;4.62;84.05
20710;BME280;10516;51.518;9.864;2022-11-14T03:26:06;98903.41;;;4.77;83.29
20710;BME280;10516;51.518;9.864;2022-11-14T03:28:32;98945.97;;;5.51;80.90
20710;BME280;10516;51.518;9.864;2022-11-14T03:30:57;98922.91;;;5.26;81.17
20710;BME280;10516;51.518;9.864;2022-11-14T03:33:23;98924.34;;;4.85;83.88
20710;BME280;10516;51.518;9.864;2022-11-14T03:35:49;98932.81;;;5.06;83.41
20710;BME280;10516;51.518;9.864;2022-11-14T03:38:15;98926.81;;;5.24;82.66
20710;BME280;10516;51.518;9.864;2022-11-14T03:40:41;98938.22;;;5.18;82.52
20710;BME280;10516;51.518;9.864;2022-11-14T03:43:06;98925.44;;;5.46;81.48
20710;BME280;10516;51.518;9.864;2022-11-14T03:45:32;98924.88;;;5.06;82.65
20710;BME280;10516;51.518;9.864;2022-11-14T03:47:57;98922.78;;;5.46;82.55
20710;BME280;10516;51.518;9.864;2022-11-14T03:50:22;98926.28;;;5.02;82.18
20710;BME280;10516;51.518;9.864;2022-11-14T03:52:49;98919.31;;;4.70;82.71
20710;BME280;10516;51.518;9.864;2022-11-14T03:55:14;98913.09;;;4.96;84.04
20710;BME280;10516;51.518;9.864;2022-11-14T03:57:40;98919.44;;;4.88;82.54
20710;BME280;10516;51.518;9.864;2022-11-14T04:00:05;98919.34;;;5.46;82.01
20710;BME280;10516;51.518;9.864;2022-11-14T04:02:31;98895.72;;;5.44;81.80
20710;BME280;10516;51.518;9.864;2022-11-14T04:04:56;98906.13;;;5.70;80.64
20710;BME280;10516;51.518;9.864;2022-11-14T04:07:22;98912.84;;;5.10;82.10
20710;BME280;10516;51.518;9.864;2022-11-14T04:09:47;98902.78;;;4.81;84.27
20710;BME280;10516;51.518;9.864;2022-11-14T04:12:12;98908.22;;;4.35;84.92
20710;BME280;10516;51.518;9.864;2022-11-14T04:14:38;98887.16;;;4.09;86.47
20710;BME280;10516;51.518;9.864;2022-11-14T04:17:03;98901.53;;;4.90;83.56
20710;BME280;10516;51.518;9.864;2022-11-14T04:19:29;98892.56;;;4.98;84.30
20710;BME280;10516;51.518;9.864;2022-11-14T04:21:54;98895.94;;;4.74;83.84
20710;BME280;10516;51.518;9.864;2022-11-14T04:24:19;98888.06;;;4.98;83.13
20710;BME280;10516;51.518;9.864;2022-11-14T04:26:45;98896.94;;;5.17;82.84
20710;BME280;10516;51.518;9.864;2022-11-14T04:29:10;98882.09;;;4.78;83.97
20710;BME280;10516;51.518;9.864;2022-11-14T04:31:35;98895.41;;;4.96;83.49
20710;BME280;10516;51.518;9.864;2022-11-14T04:34:01;98896.81;;;4.99;83.85
20710;BME280;10516;51.518;9.864;2022-11-14T04:36:26;98899.31;;;4.36;85.63
20710;BME280;10516;51.518;9.864;2022-11-14T04:38:52;98874.97;;;4.21;86.97
20710;BME280;10516;51.518;9.864;2022-11-14T04:41:17;98885.91;;;4.82;85.90
20710;BME280;10516;51.518;9.864;2022-11-14T04:43:42;98887.34;;;4.85;84.25
20710;BME280;10516;51.518;9.864;2022-11-14T04:46:08;98884.25;;;4.37;87.17
20710;BME280;10516;51.518;9.864;2022-11-14T04:48:33;98884.16;;;4.56;85.55
20710;BME280;10516;51.518;9.864;2022-11-14T04:50:58;98875.34;;;4.82;84.61
20710;BME280;10516;51.518;9.864;2022-11-14T04:53:24;98847.66;;;4.40;84.98
20710;BME280;10516;51.518;9.864;2022-11-14T04:55:49;98876.00;;;4.71;85.04
20710;BME280;10516;51.518;9.864;2022-11-14T04:58:14;98867.75;;;4.41;86.98
20710;BME280;10516;51.518;9.864;2022-11-14T05:00:40;98874.16;;;5.09;84.51
20710;BME280;10516;51.518;9.864;2022-11-14T05:03:07;98852.22;;;4.71;84.25
20710;BME280;10516;51.518;9.864;2022-11-14T05:05:32;98861.53;;;5.43;81.76
20710;BME280;10516;51.518;9.864;2022-11-14T05:07:58;98864.53;;;4.84;83.93
20710;BME280;10516;51.518;9.864;2022-11-14T05:10:23;98852.72;;;4.42;85.60
20710;BME280;10516;51.518;9.864;2022-11-14T05:12:52;98831.84;;;4.27;86.27
20710;BME280;10516;51.518;9.864;2022-11-14T05:15:18;98834.16;;;4.62;85.11
20710;BME280;10516;51.518;9.864;2022-11-14T05:17:43;98833.94;;;5.01;84.17
20710;BME280;10516;51.518;9.864;2022-11-14T05:20:09;98840.94;;;4.89;83.94
20710;BME280;10516;51.518;9.864;2022-11-14T05:22:34;98848.59;;;4.97;83.73
20710;BME280;10516;51.518;9.864;2022-11-14T05:25:00;98828.50;;;4.89;83.73
20710;BME280;10516;51.518;9.864;2022-11-14T05:27:25;98821.25;;;4.34;85.11
20710;BME280;10516;51.518;9.864;2022-11-14T05:29:51;98831.28;;;4.19;87.19
20710;BME280;10516;51.518;9.864;2022-11-14T05:32:16;98846.66;;;4.28;86.98
20710;BME280;10516;51.518;9.864;2022-11-14T05:34:41;98825.41;;;4.61;85.56
20710;BME280;10516;51.518;9.864;2022-11-14T05:37:07;98838.13;;;5.40;82.69
20710;BME280;10516;51.518;9.864;2022-11-14T05:39:32;98829.94;;;4.85;84.35
20710;BME280;10516;51.518;9.864;2022-11-14T05:41:58;98839.75;;;4.34;86.28
20710;BME280;10516;51.518;9.864;2022-11-14T05:44:23;98828.75;;;4.37;86.25
20710;BME280;10516;51.518;9.864;2022-11-14T05:46:49;98833.00;;;4.89;84.93
20710;BME280;10516;51.518;9.864;2022-11-14T05:49:14;98812.38;;;4.66;84.33
20710;BME280;10516;51.518;9.864;2022-11-14T05:51:39;98812.91;;;4.81;85.29
20710;BME280;10516;51.518;9.864;2022-11-14T05:54:05;98805.47;;;4.65;83.65
20710;BME280;10516;51.518;9.864;2022-11-14T05:56:30;98787.16;;;4.64;84.54
20710;BME280;10516;51.518;9.864;2022-11-14T05:58:55;98814.19;;;4.66;85.08
20710;BME280;10516;51.518;9.864;2022-11-14T06:01:21;98798.38;;;4.59;83.79
20710;BME280;10516;51.518;9.864;2022-11-14T06:03:47;98784.06;;;3.71;85.72
20710;BME280;10516;51.518;9.864;2022-11-14T06:06:16;98808.44;;;3.60;87.55
20710;BME280;10516;51.518;9.864;2022-11-14T06:08:41;98816.16;;;3.36;88.78
20710;BME280;10516;51.518;9.864;2022-11-14T06:11:09;98817.00;;;3.36;89.23
20710;BME280;10516;51.518;9.864;2022-11-14T06:13:35;98815.94;;;3.11;89.77
20710;BME280;10516;51.518;9.864;2022-11-14T06:16:03;98784.50;;;3.03;89.52
20710;BME280;10516;51.518;9.864;2022-11-14T06:18:30;98780.44;;;3.00;89.50
20710;BME280;10516;51.518;9.864;2022-11-14T06:21:16;98798.69;;;3.02;88.82
20710;BME280;10516;51.518;9.864;2022-11-14T06:23:42;98806.44;;;3.17;90.82
20710;BME280;10516;51.518;9.864;2022-11-14T06:26:26;98825.09;;;3.35;88.51
20710;BME280;10516;51.518;9.864;2022-11-14T06:28:54;98798.31;;;3.12;88.06
20710;BME280;10516;51.518;9.864;2022-11-14T06:31:20;98836.47;;;3.48;87.05
20710;BME280;10516;51.518;9.864;2022-11-14T06:33:45;98830.97;;;3.37;87.56
20710;BME280;10516;51.518;9.864;2022-11-14T06:36:11;98834.81;;;3.15;87.72
20710;BME280;10516;51.518;9.864;2022-11-14T06:38:38;98842.50;;;2.90;89.22
20710;BME280;10516;51.518;9.864;2022-11-14T06:41:13;98807.59;;;2.81;88.99
20710;BME280;10516;51.518;9.864;2022-11-14T06:43:40;98818.25;;;2.54;90.13
20710;BME280;10516;51.518;9.864;2022-11-14T06:46:08;98827.19;;;2.59;90.72
20710;BME280;10516;51.518;9.864;2022-11-14T06:48:34;98834.75;;;2.88;89.68
20710;BME280;10516;51.518;9.864;2022-11-14T06:51:01;98836.63;;;2.41;90.70
20710;BME280;10516;51.518;9.864;2022-11-14T06:53:27;98844.38;;;2.42;91.87
20710;BME280;10516;51.518;9.864;2022-11-14T06:55:55;98834.44;;;2.44;91.31
20710;BME280;10516;51.518;9.864;2022-11-14T06:58:21;98839.66;;;2.31;92.12
20710;BME280;10516;51.518;9.864;2022-11-14T07:00:47;98842.13;;;2.46;91.87
20710;BME280;10516;51.518;9.864;2022-11-14T07:03:12;98805.25;;;1.92;93.21
20710;BME280;10516;51.518;9.864;2022-11-14T07:05:37;98829.53;;;2.35;92.49
20710;BME280;10516;51.518;9.864;2022-11-14T07:08:03;98833.09;;;2.68;92.35
20710;BME280;10516;51.518;9.864;2022-11-14T07:10:28;98831.47;;;2.67;90.64
20710;BME280;10516;51.518;9.864;2022-11-14T07:12:53;98830.50;;;2.87;90.81
20710;BME280;10516;51.518;9.864;2022-11-14T07:15:19;98837.59;;;2.87;90.66
20710;BME280;10516;51.518;9.864;2022-11-14T07:17:44;98846.63;;;2.52;92.02
20710;BME280;10516;51.518;9.864;2022-11-14T07:20:10;98843.44;;;2.76;91.14
20710;BME280;10516;51.518;9.864;2022-11-14T07:22:35;98827.63;;;2.69;91.03
20710;BME280;10516;51.518;9.864;2022-11-14T07:25:00;98838.06;;;3.03;90.28
20710;BME280;10516;51.518;9.864;2022-11-14T07:27:26;98844.00;;;2.58;91.30
20710;BME280;10516;51.518;9.864;2022-11-14T07:29:51;98828.84;;;2.73;90.82
20710;BME280;10516;51.518;9.864;2022-11-14T07:32:17;98832.34;;;2.93;90.78
20710;BME280;10516;51.518;9.864;2022-11-14T07:34:42;98844.53;;;2.94;89.21
20710;BME280;10516;51.518;9.864;2022-11-14T07:37:07;98830.34;;;3.15;88.70
20710;BME280;10516;51.518;9.864;2022-11-14T07:39:33;98839.94;;;2.56;90.84
20710;BME280;10516;51.518;9.864;2022-11-14T07:41:58;98828.03;;;2.60;91.35
20710;BME280;10516;51.518;9.864;2022-11-14T07:44:23;98849.81;;;2.94;90.74
20710;BME280;10516;51.518;9.864;2022-11-14T07:46:49;98817.53;;;2.73;91.33
20710;BME280;10516;51.518;9.864;2022-11-14T07:49:16;98848.69;;;2.69;93.08
20710;BME280;10516;51.518;9.864;2022-11-14T07:51:41;98854.88;;;3.02;91.32
20710;BME280;10516;51.518;9.864;2022-11-14T07:54:09;98833.38;;;2.92;90.78
20710;BME280;10516;51.518;9.864;2022-11-14T07:56:35;98859.88;;;2.78;91.47
20710;BME280;10516;51.518;9.864;2022-11-14T07:59:00;98832.34;;;2.93;91.19
20710;BME280;10516;51.518;9.864;2022-11-14T08:01:26;98843.34;;;3.10;91.29
20710;BME280;10516;51.518;9.864;2022-11-14T08:03:51;98833.59;;;3.37;89.40
20710;BME280;10516;51.518;9.864;2022-11-14T08:06:17;98861.63;;;3.70;89.21
20710;BME280;10516;51.518;9.864;2022-11-14T08:08:42;98852.22;;;4.01;87.45
20710;BME280;10516;51.518;9.864;2022-11-14T08:11:07;98824.66;;;2.98;89.62
20710;BME280;10516;51.518;9.864;2022-11-14T08:13:33;98867.50;;;3.40;91.15
20710;BME280;10516;51.518;9.864;2022-11-14T08:16:05;98845.91;;;4.21;86.52
20710;BME280;10516;51.518;9.864;2022-11-14T08:18:31;98841.28;;;3.97;86.66
20710;BME280;10516;51.518;9.864;2022-11-14T08:20:57;98842.25;;;4.09;86.22
20710;BME280;10516;51.518;9.864;2022-11-14T08:23:23;98842.72;;;3.54;89.52
20710;BME280;10516;51.518;9.864;2022-11-14T08:25:49;98842.28;;;4.60;84.60
20710;BME280;10516;51.518;9.864;2022-11-14T08:28:14;98841.50;;;4.53;84.35
20710;BME280;10516;51.518;9.864;2022-11-14T08:30:39;98832.50;;;4.16;86.15
20710;BME280;10516;51.518;9.864;2022-11-14T08:33:05;98847.03;;;4.45;84.93
20710;BME280;10516;51.518;9.864;2022-11-14T08:35:32;98833.53;;;4.09;86.53
20710;BME280;10516;51.518;9.864;2022-11-14T08:37:57;98831.31;;;3.99;87.39
20710;BME280;10516;51.518;9.864;2022-11-14T08:40:23;98840.25;;;4.62;85.08
20710;BME280;10516;51.518;9.864;2022-11-14T08:42:48;98838.09;;;4.39;86.23
20710;BME280;10516;51.518;9.864;2022-11-14T08:45:14;98845.38;;;3.87;89.04
20710;BME280;10516;51.518;9.864;2022-11-14T08:47:39;98835.47;;;4.84;84.32
20710;BME280;10516;51.518;9.864;2022-11-14T08:50:05;98841.50;;;4.97;83.07
20710;BME280;10516;51.518;9.864;2022-11-14T08:52:30;98835.25;;;4.85;84.83
20710;BME280;10516;51.518;9.864;2022-11-14T08:54:56;98822.63;;;4.87;83.43
20710;BME280;10516;51.518;9.864;2022-11-14T08:57:21;98815.59;;;5.06;82.62
20710;BME280;10516;51.518;9.864;2022-11-14T08:59:46;98818.66;;;4.72;85.19
20710;BME280;10516;51.518;9.864;2022-11-14T09:02:12;98781.84;;;4.32;86.22
20710;BME280;10516;51.518;9.864;2022-11-14T09:04:38;98805.28;;;4.09;89.51
20710;BME280;10516;51.518;9.864;2022-11-14T09:07:03;98805.59;;;4.39;88.04
20710;BME280;10516;51.518;9.864;2022-11-14T09:09:29;98795.94;;;4.07;88.55
20710;BME280;10516;51.518;9.864;2022-11-14T09:11:54;98799.00;;;4.10;89.58
20710;BME280;10516;51.518;9.864;2022-11-14T09:14:20;98795.22;;;4.37;88.06
20710;BME280;10516;51.518;9.864;2022-11-14T09:16:48;98804.66;;;4.14;89.61
20710;BME280;10516;51.518;9.864;2022-11-14T09:19:14;98803.47;;;4.10;90.25
20710;BME280;10516;51.518;9.864;2022-11-14T09:21:39;98788.94;;;3.68;92.15
20710;BME280;10516;51.518;9.864;2022-11-14T09:24:05;98780.41;;;3.79;92.06
20710;BME280;10516;51.518;9.864;2022-11-14T09:26:30;98776.25;;;4.09;90.89
20710;BME280;10516;51.518;9.864;2022-11-14T09:28:56;98721.97;;;3.69;91.40
20710;BME280;10516;51.518;9.864;2022-11-14T09:31:21;98750.75;;;4.34;88.78
20710;BME280;10516;51.518;9.864;2022-11-14T09:33:46;98777.75;;;5.05;85.79
20710;BME280;10516;51.518;9.864;2022-11-14T09:36:12;98777.38;;;4.71;87.63
20710;BME280;10516;51.518;9.864;2022-11-14T09:38:43;98768.53;;;4.83;87.24
20710;BME280;10516;51.518;9.864;2022-11-14T09:47:12;98765.97;;;4.39;90.26
20710;BME280;10516;51.518;9.864;2022-11-14T09:49:41;98764.00;;;4.59;90.05
20710;BME280;10516;51.518;9.864;2022-11-14T09:55:12;98740.34;;;5.02;86.80
20710;BME280;10516;51.518;9.864;2022-11-14T09:57:41;98741.28;;;4.83;88.29
20710;BME280;10516;51.518;9.864;2022-11-14T10:00:19;98760.13;;;5.24;85.33
20710;BME280;10516;51.518;9.864;2022-11-14T10:08:29;98746.59;;;5.75;82.60
20710;BME280;10516;51.518;9.864;2022-11-14T10:16:24;98739.44;;;5.57;84.04
20710;BME280;10516;51.518;9.864;2022-11-14T10:22:11;98778.28;;;5.81;83.29
20710;BME280;10516;51.518;9.864;2022-11-14T10:27:24;98762.38;;;5.88;84.43
20710;BME280;10516;51.518;9.864;2022-11-14T10:30:08;98765.91;;;5.57;86.91
20710;BME280;10516;51.518;9.864;2022-11-14T10:40:50;98758.69;;;5.89;85.91
20710;BME280;10516;51.518;9.864;2022-11-14T10:43:34;98738.03;;;5.97;84.93
20710;BME280;10516;51.518;9.864;2022-11-14T10:46:05;98747.41;;;6.30;84.66
20710;BME280;10516;51.518;9.864;2022-11-14T10:48:39;98717.66;;;6.28;82.62
20710;BME280;10516;51.518;9.864;2022-11-14T10:51:28;98736.09;;;6.52;82.67
20710;BME280;10516;51.518;9.864;2022-11-14T10:54:01;98732.16;;;6.43;83.39
20710;BME280;10516;51.518;9.864;2022-11-14T10:56:30;98736.22;;;6.87;81.42
20710;BME280;10516;51.518;9.864;2022-11-14T10:58:55;98732.47;;;6.65;82.05
20710;BME280;10516;51.518;9.864;2022-11-14T11:01:37;98749.38;;;6.94;81.37
20710;BME280;10516;51.518;9.864;2022-11-14T11:04:32;98749.84;;;7.02;81.78
20710;BME280;10516;51.518;9.864;2022-11-14T11:09:35;98737.88;;;7.11;80.34
20710;BME280;10516;51.518;9.864;2022-11-14T11:15:28;98746.44;;;7.25;81.13
20710;BME280;10516;51.518;9.864;2022-11-14T11:17:59;98743.56;;;7.38;79.61
20710;BME280;10516;51.518;9.864;2022-11-14T11:25:28;98731.19;;;7.20;80.57
20710;BME280;10516;51.518;9.864;2022-11-14T11:28:19;98734.31;;;7.17;81.09
20710;BME280;10516;51.518;9.864;2022-11-14T11:30:54;98744.25;;;7.56;80.21
20710;BME280;10516;51.518;9.864;2022-11-14T11:33:22;98731.66;;;7.75;79.55
20710;BME280;10516;51.518;9.864;2022-11-14T11:35:49;98729.34;;;7.44;80.22
20710;BME280;10516;51.518;9.864;2022-11-14T11:38:16;98714.16;;;7.91;79.33
20710;BME280;10516;51.518;9.864;2022-11-14T11:40:55;98728.06;;;7.93;78.78
20710;BME280;10516;51.518;9.864;2022-11-14T11:43:41;98718.34;;;7.87;78.65
20710;BME280;10516;51.518;9.864;2022-11-14T11:46:32;98706.50;;;7.43;79.54
20710;BME280;10516;51.518;9.864;2022-11-14T11:49:10;98696.25;;;7.98;78.93
20710;BME280;10516;51.518;9.864;2022-11-14T11:51:39;98719.94;;;8.39;77.67
20710;BME280;10516;51.518;9.864;2022-11-14T11:57:11;98714.53;;;7.94;78.39
20710;BME280;10516;51.518;9.864;2022-11-14T11:59:42;98710.69;;;8.02;78.84
20710;BME280;10516;51.518;9.864;2022-11-14T12:04:48;98717.19;;;7.94;78.51
20710;BME280;10516;51.518;9.864;2022-11-14T12:07:19;98714.38;;;8.12;77.90
20710;BME280;10516;51.518;9.864;2022-11-14T12:09:47;98692.47;;;7.82;78.67
20710;BME280;10516;51.518;9.864;2022-11-14T12:23:15;98688.59;;;8.41;77.61
20710;BME280;10516;51.518;9.864;2022-11-14T12:26:14;98675.31;;;8.41;77.30
20710;BME280;10516;51.518;9.864;2022-11-14T12:31:33;98692.63;;;8.72;77.31
20710;BME280;10516;51.518;9.864;2022-11-14T12:34:04;98687.72;;;8.97;76.89
20710;BME280;10516;51.518;9.864;2022-11-14T12:36:36;98676.38;;;9.01;76.56
20710;BME280;10516;51.518;9.864;2022-11-14T12:39:03;98674.88;;;8.61;76.69
20710;BME280;10516;51.518;9.864;2022-11-14T12:41:33;98654.34;;;8.73;76.63
20710;BME280;10516;51.518;9.864;2022-11-14T12:52:51;98676.13;;;8.86;76.78
20710;BME280;10516;51.518;9.864;2022-11-14T13:00:27;98669.09;;;9.14;75.89
20710;BME280;10516;51.518;9.864;2022-11-14T13:03:25;98660.47;;;8.73;76.16
20710;BME280;10516;51.518;9.864;2022-11-14T13:11:44;98641.13;;;9.33;73.42
20710;BME280;10516;51.518;9.864;2022-11-14T13:14:30;98624.03;;;9.67;74.63
20710;BME280;10516;51.518;9.864;2022-11-14T13:20:06;98622.53;;;9.16;74.61
20710;BME280;10516;51.518;9.864;2022-11-14T13:33:44;98638.56;;;9.81;73.55
20710;BME280;10516;51.518;9.864;2022-11-14T13:50:10;98617.50;;;9.36;76.04
20710;BME280;10516;51.518;9.864;2022-11-14T13:52:42;98616.09;;;8.95;77.10
20710;BME280;10516;51.518;9.864;2022-11-14T13:55:20;98600.19;;;9.00;78.15
20710;BME280;10516;51.518;9.864;2022-11-14T14:00:29;98596.50;;;8.85;78.17
20710;BME280;10516;51.518;9.864;2022-11-14T14:03:06;98602.00;;;8.45;77.94
20710;BME280;10516;51.518;9.864;2022-11-14T14:16:51;98592.63;;;8.26;79.04
20710;BME280;10516;51.518;9.864;2022-11-14T14:19:38;98565.13;;;8.20;78.70
20710;BME280;10516;51.518;9.864;2022-11-14T14:27:57;98565.59;;;8.17;79.55
20710;BME280;10516;51.518;9.864;2022-11-14T14:30:24;98587.47;;;8.53;78.79
20710;BME280;10516;51.518;9.864;2022-11-14T14:33:09;98580.53;;;8.35;78.71
20710;BME280;10516;51.518;9.864;2022-11-14T14:35:36;98586.31;;;7.87;80.19
20710;BME280;10516;51.518;9.864;2022-11-14T14:38:02;98580.28;;;7.64;80.35
20710;BME280;10516;51.518;9.864;2022-11-14T14:40:33;98570.75;;;7.79;80.89
20710;BME280;10516;51.518;9.864;2022-11-14T14:43:00;98575.63;;;7.99;79.45
20710;BME280;10516;51.518;9.864;2022-11-14T14:45:27;98565.84;;;7.88;80.16
20710;BME280;10516;51.518;9.864;2022-11-14T14:48:05;98561.28;;;7.72;80.98
20710;BME280;10516;51.518;9.864;2022-11-14T14:50:55;98555.50;;;7.46;81.12
20710;BME280;10516;51.518;9.864;2022-11-14T14:53:22;98548.25;;;7.30;82.43
20710;BME280;10516;51.518;9.864;2022-11-14T14:55:56;98563.41;;;7.18;83.09
20710;BME280;10516;51.518;9.864;2022-11-14T15:03:21;98564.63;;;7.39;82.18
20710;BME280;10516;51.518;9.864;2022-11-14T15:05:47;98541.75;;;6.98;82.90
20710;BME280;10516;51.518;9.864;2022-11-14T15:08:15;98551.09;;;7.40;81.30
20710;BME280;10516;51.518;9.864;2022-11-14T15:10:42;98544.25;;;7.16;83.09
20710;BME280;10516;51.518;9.864;2022-11-14T15:13:10;98540.56;;;7.06;83.34
20710;BME280;10516;51.518;9.864;2022-11-14T15:15:38;98520.41;;;6.81;82.50
20710;BME280;10516;51.518;9.864;2022-11-14T15:18:06;98551.09;;;7.01;83.24
20710;BME280;10516;51.518;9.864;2022-11-14T15:20:33;98523.75;;;7.00;82.16
20710;BME280;10516;51.518;9.864;2022-11-14T15:25:29;98535.16;;;7.01;83.12
20710;BME280;10516;51.518;9.864;2022-11-14T15:27:55;98514.59;;;7.08;82.84
20710;BME280;10516;51.518;9.864;2022-11-14T15:30:30;98518.81;;;6.80;83.64
20710;BME280;10516;51.518;9.864;2022-11-14T15:32:58;98540.34;;;7.47;81.28
20710;BME280;10516;51.518;9.864;2022-11-14T15:35:34;98523.69;;;7.23;81.07
20710;BME280;10516;51.518;9.864;2022-11-14T15:40:36;98540.00;;;7.04;82.58
20710;BME280;10516;51.518;9.864;2022-11-14T15:48:52;98512.44;;;6.93;82.28